Flight Track Log - Related Links

Times and Time Zones

All times are in EST time to prevent confusion due to time zone crossing. See the FDX1428 flight status page for this flight to view local times or setup timezone preferences in your user account.

Time Position Orientation Groundspeed Altitude Reporting Facility
EST Latitude Longitude Course Direction KTS MPH feet Rate Location/Type
Thu 07:31:51 AM 39.8604 -75.2739 250° West 131 151 2,500  Level FlightAware ADS-B
Thu 07:32:06 AM 39.8565 -75.2881 250° West 170 196 3,000 2,129 Climbing FlightAware ADS-B
Thu 07:32:22 AM 39.8514 -75.3060 249° West 201 231 3,600 3,677 Climbing FlightAware ADS-B
Thu 07:32:37 AM 39.8455 -75.3255 249° West 227 261 4,900 5,455 Climbing FlightAware ADS-B
Thu 07:32:55 AM 39.8387 -75.3487 260° West 230 265 6,600 5,818 Climbing FlightAware ADS-B
Thu 07:33:10 AM 39.8357 -75.3698 281° West 227 261 8,100 5,226 Climbing FlightAware ADS-B
Thu 07:33:26 AM 39.8387 -75.3899 289° West 221 254 9,300 2,760 Climbing FlightAware ADS-B
Thu 07:34:00 AM 39.8509 -75.4366 289° West 236 272 10,400 1,031 Climbing FlightAware ADS-B
Thu 07:34:30 AM 39.8629 -75.4833 290° West 284 327 10,400  Level FlightAware ADS-B
Thu 07:35:01 AM 39.8774 -75.5350 291° West 307 353 10,400 295 Level FlightAware ADS-B
Thu 07:35:31 AM 39.8931 -75.5872 291° West 313 360 10,700 2,900 Climbing FlightAware ADS-B
Thu 07:36:01 AM 39.9089 -75.6398 281° West 310 357 13,300 4,918 Climbing FlightAware ADS-B
Thu 07:36:32 AM 39.9176 -75.6958 269° West 303 349 15,700 4,667 Climbing FlightAware ADS-B
Thu 07:37:13 AM 39.9164 -75.7750 268° West 313 360 18,900 4,333 Climbing FlightAware ADS-B
Thu 07:37:44 AM 39.9147 -75.8362 268° West 330 380 20,900 3,810 Climbing FlightAware ADS-B
Thu 07:38:16 AM 39.9131 -75.9026 268° West 351 404 22,900 3,563 Climbing FlightAware ADS-B
Thu 07:38:48 AM 39.9116 -75.9689 268° West 347 399 24,700 3,484 Climbing FlightAware ADS-B
Thu 07:39:18 AM 39.9103 -76.0317 268° West 355 409 26,500 2,903 Climbing FlightAware ADS-B
Thu 07:39:50 AM 39.9087 -76.0989 269° West 353 406 27,700 2,492 Climbing FlightAware ADS-B
Thu 07:40:23 AM 39.9073 -76.1679 271° West 336 387 29,200 1,890 Climbing FlightAware ADS-B
Thu 07:41:03 AM 39.9087 -76.2534 274° West 348 400 30,000 658 Climbing FlightAware ADS-B
Thu 07:41:36 AM 39.9123 -76.3217 274° West 341 392 30,000  Level FlightAware ADS-B
Thu 07:42:10 AM 39.9156 -76.3903 273° West 336 387 30,000  Level FlightAware ADS-B
Thu 07:42:41 AM 39.9181 -76.4535 273° West 342 394 30,000  Level FlightAware ADS-B
Thu 07:43:11 AM 39.9206 -76.5168 273° West 343 395 30,000  Level FlightAware ADS-B
Thu 07:43:46 AM 39.9234 -76.5847 273° West 389 448 30,000  Level FlightAware ADS-B
Thu 07:44:24 AM 39.9269 -76.6657 273° West 343 395 30,000  Level FlightAware ADS-B
Thu 07:45:08 AM 39.9300 -76.7563 272° West 349 402 30,000  Level FlightAware ADS-B
Thu 07:45:52 AM 39.9322 -76.8433 273° West 351 404 30,000  Level New York Center
Thu 07:46:52 AM 39.9381 -76.9711 272° West 351 404 30,000  Level New York Center
Thu 07:47:51 AM 39.9419 -77.0933 273° West 351 404 30,000  Level New York Center
Thu 07:50:01 AM 39.9528 -77.3628 273° West 341 392 30,000  Level Cleveland Center
Thu 07:51:01 AM 39.9583 -77.4872 272° West 347 399 30,000  Level Cleveland Center
Thu 07:52:01 AM 39.9617 -77.6089 272° West 347 399 30,000  Level Cleveland Center
Thu 07:53:01 AM 39.9647 -77.7333 273° West 347 399 30,000  Level Cleveland Center
Thu 07:54:01 AM 39.9700 -77.8578 271° West 347 399 30,000  Level Cleveland Center
Thu 07:55:01 AM 39.9708 -77.9850 272° West 347 399 30,000  Level Cleveland Center
Thu 07:56:01 AM 39.9736 -78.1069 273° West 347 399 30,000  Level Cleveland Center
Thu 07:57:01 AM 39.9783 -78.2314 271° West 347 399 30,000  Level Cleveland Center
Thu 07:58:01 AM 39.9806 -78.3506 272° West 347 399 30,000  Level Cleveland Center
Thu 07:59:01 AM 39.9831 -78.4725 273° West 347 399 30,000  Level Cleveland Center
Thu 08:00:01 AM 39.9872 -78.5942 271° West 347 399 30,000  Level Cleveland Center
Thu 08:01:01 AM 39.9894 -78.7161 271° West 347 399 30,000  Level Cleveland Center
Thu 08:02:01 AM 39.9914 -78.8408 272° West 347 399 30,000  Level Cleveland Center
Thu 08:03:01 AM 39.9953 -78.9597 272° West 347 399 30,000  Level Cleveland Center
Thu 08:04:01 AM 39.9989 -79.0817 271° West 347 399 30,000  Level Cleveland Center
Thu 08:05:01 AM 40.0006 -79.2064 272° West 347 399 30,000  Level Cleveland Center
Thu 08:06:01 AM 40.0039 -79.3308 272° West 347 399 30,000  Level Cleveland Center
Thu 08:07:01 AM 40.0075 -79.4528 271° West 347 399 30,000  Level Cleveland Center
Thu 08:08:01 AM 40.0086 -79.5775 271° West 347 399 30,000  Level Cleveland Center
Thu 08:09:01 AM 40.0094 -79.7022 271° West 347 399 30,000  Level Cleveland Center
Thu 08:10:01 AM 40.0103 -79.8161 272° West 347 399 30,000  Level Cleveland Center
Thu 08:11:01 AM 40.0133 -79.9433 272° West 347 399 30,000  Level Cleveland Center
Thu 08:12:01 AM 40.0161 -80.0653 270° West 347 399 30,000 -400 Level Cleveland Center
Thu 08:13:01 AM 40.0164 -80.1900 272° West 347 399 29,200 -950 Descending Cleveland Center
Thu 08:14:01 AM 40.0189 -80.3119 269° West 347 399 28,100 -1,100 Descending Cleveland Center
Thu 08:15:01 AM 40.0169 -80.4339 270° West 347 399 27,000 -1,100 Descending Cleveland Center
Thu 08:16:01 AM 40.0172 -80.5533 271° West 342 394 25,900 -1,100 Descending Cleveland Center
Thu 08:17:01 AM 40.0192 -80.6725 270° West 337 388 24,800 -950 Descending Cleveland Center
Thu 08:18:01 AM 40.0189 -80.7917 266° West 337 388 24,000 -850 Descending Cleveland Center
Thu 08:19:01 AM 40.0125 -80.9056 263° West 326 375 23,100 -1,050 Descending Cleveland Center
Thu 08:20:01 AM 40.0017 -81.0194 263° West 326 375 21,900 -1,143 Descending Cleveland Center
Thu 08:21:28 AM 39.9875 -81.1781 262° West 326 375 20,300 -1,143 Descending Indianapolis Center
Thu 08:22:28 AM 39.9750 -81.2894 263° West 319 367 19,100 -1,200 Descending Indianapolis Center
Thu 08:23:28 AM 39.9647 -81.4008 264° West 317 365 17,900 -1,300 Descending Indianapolis Center
Thu 08:24:28 AM 39.9542 -81.5231 263° West 334 384 16,500 -1,300 Descending Indianapolis Center
Thu 08:25:28 AM 39.9436 -81.6400 263° West 329 379 15,300 -1,250 Descending Indianapolis Center
Thu 08:26:28 AM 39.9331 -81.7511 263° West 324 373 14,000 -1,300 Descending Indianapolis Center
Thu 08:27:28 AM 39.9222 -81.8625 262° West 324 373 12,700 -1,300 Descending Indianapolis Center
Thu 08:28:28 AM 39.9111 -81.9708 264° West 311 358 11,400 -1,364 Descending Indianapolis Center
Thu 08:29:18 AM 39.9022 -82.0822 260° West 314 361 10,200 -857 Descending Indianapolis Center
Thu 08:30:06 AM 39.8906 -82.1717 273° West 317 365 10,000 -554 Descending Indianapolis Center
Thu 08:31:28 AM 39.8964 -82.2989 273° West 285 328 9,000 -1,041 Descending Indianapolis Center
Thu 08:32:07 AM 39.8989 -82.3556 273° West 243 280 7,900 -1,860 Descending Indianapolis Center
Thu 08:33:08 AM 39.9019 -82.4475 271° West 238 274 5,900 -1,475 Descending Indianapolis Center
Thu 08:34:09 AM 39.9028 -82.5314 275° West 234 269 4,900 -1,131 Descending Indianapolis Center
Thu 08:35:10 AM 39.9075 -82.6017 271° West 199 229 3,600 -942 Descending Indianapolis Center
Thu 08:36:10 AM 39.9081 -82.6719 271° West 196 226 3,000 -545 Descending Indianapolis Center
Thu 08:37:11 AM 39.9086 -82.7397 255° West 192 221 2,500 -219 Descending Indianapolis Center
Thu 08:38:27 AM 39.8922 -82.8183 240° Southwest 180 207 2,500 -157 Level Indianapolis Center
Thu 08:39:06 AM 39.8781 -82.8508 225° Southwest 158 182 2,200 -606 Descending Indianapolis Center
Thu 08:40:06 AM 39.8531 -82.8836 225° Southwest 129 148 1,500 -700 Descending Indianapolis Center

Login

Don't have an account? Register now (free) for customized features, flight alerts, and more!